createdAt,value
2022-10-31T00:01:56.857Z,20.87
2022-10-31T00:04:59.308Z,20.80
2022-10-31T00:08:01.726Z,20.75
2022-10-31T00:11:04.381Z,20.67
2022-10-31T00:14:09.569Z,20.88
2022-10-31T00:17:11.898Z,19.43
2022-10-31T00:20:14.410Z,19.80
2022-10-31T00:23:17.817Z,20.40
2022-10-31T00:26:21.034Z,20.67
2022-10-31T00:29:23.571Z,19.75
2022-10-31T00:32:25.980Z,19.53
2022-10-31T00:35:28.315Z,19.25
2022-10-31T00:38:32.585Z,20.08
2022-10-31T00:41:35.473Z,20.20
2022-10-31T00:44:39.005Z,20.10
2022-10-31T00:47:41.777Z,19.43
2022-10-31T00:50:44.201Z,20.42
2022-10-31T00:53:47.094Z,18.20
2022-10-31T00:56:49.471Z,18.33
2022-10-31T00:59:52.890Z,19.77
2022-10-31T01:02:56.128Z,21.17
2022-10-31T01:06:12.346Z,21.38
2022-10-31T01:09:14.772Z,18.70
2022-10-31T01:12:17.253Z,18.50
2022-10-31T01:15:24.429Z,18.10
2022-10-31T01:18:28.275Z,17.90
2022-10-31T01:21:31.575Z,18.35
2022-10-31T01:24:34.879Z,18.77
2022-10-31T01:27:38.258Z,17.02
2022-10-31T01:30:43.206Z,18.40
2022-10-31T01:33:46.223Z,17.17
2022-10-31T01:36:52.204Z,18.25
2022-10-31T01:39:54.970Z,17.20
2022-10-31T01:42:57.656Z,16.67
2022-10-31T01:46:00.632Z,17.42
2022-10-31T01:49:05.676Z,16.30
2022-10-31T01:52:14.129Z,17.27
2022-10-31T01:55:27.805Z,15.82
2022-10-31T01:58:33.000Z,18.15
2022-10-31T02:01:36.065Z,16.63
2022-10-31T02:04:39.386Z,16.97
2022-10-31T02:07:55.559Z,18.58
2022-10-31T02:11:03.605Z,17.70
2022-10-31T02:14:06.001Z,18.15
2022-10-31T02:17:08.637Z,17.60
2022-10-31T02:20:19.230Z,16.60
2022-10-31T02:23:25.297Z,17.00
2022-10-31T02:27:02.613Z,16.08
2022-10-31T02:30:09.961Z,16.65
2022-10-31T02:33:30.667Z,16.48
2022-10-31T02:36:44.115Z,16.30
2022-10-31T02:40:00.367Z,14.77
2022-10-31T02:43:25.540Z,15.50
2022-10-31T02:46:43.487Z,17.58
2022-10-31T02:50:04.758Z,15.77
2022-10-31T02:53:08.143Z,16.43
2022-10-31T02:56:16.293Z,16.23
2022-10-31T02:59:20.978Z,17.50
2022-10-31T03:02:49.466Z,15.25
2022-10-31T03:05:54.903Z,17.08
2022-10-31T03:09:14.066Z,16.07
2022-10-31T03:12:29.003Z,16.20
2022-10-31T03:16:01.455Z,15.75
2022-10-31T03:19:06.953Z,15.82
2022-10-31T03:22:22.596Z,16.88
2022-10-31T03:25:26.406Z,15.00
2022-10-31T03:28:37.446Z,15.60
2022-10-31T03:32:11.389Z,15.85
2022-10-31T03:35:15.390Z,14.63
2022-10-31T03:38:18.850Z,15.85
2022-10-31T03:41:24.256Z,15.27
2022-10-31T03:44:27.639Z,15.05
2022-10-31T03:47:37.963Z,14.63
2022-10-31T03:51:08.868Z,15.30
2022-10-31T03:54:39.313Z,14.52
2022-10-31T03:57:53.196Z,14.63
2022-10-31T04:00:56.945Z,15.65
2022-10-31T04:04:00.080Z,14.30
2022-10-31T04:07:03.357Z,15.38
2022-10-31T04:10:09.090Z,15.48
2022-10-31T04:13:15.340Z,14.97
2022-10-31T04:16:24.337Z,12.50
2022-10-31T04:19:26.792Z,12.45
2022-10-31T04:22:29.234Z,11.65
2022-10-31T04:25:31.863Z,11.32
2022-10-31T04:28:35.521Z,11.00
2022-10-31T04:31:38.230Z,11.57
2022-10-31T04:34:40.725Z,13.07
2022-10-31T04:37:43.072Z,13.27
2022-10-31T04:40:46.342Z,11.07
2022-10-31T04:44:17.532Z,12.57
2022-10-31T04:47:23.122Z,12.85
2022-10-31T04:50:25.507Z,11.55
2022-10-31T04:53:28.260Z,12.00
2022-10-31T04:56:49.106Z,15.95
2022-10-31T04:59:57.347Z,16.03
2022-10-31T05:03:01.048Z,13.35
2022-10-31T05:06:04.257Z,13.32
2022-10-31T05:09:07.142Z,14.48
2022-10-31T05:12:10.392Z,18.63
2022-10-31T05:15:31.826Z,13.60
2022-10-31T05:19:00.531Z,13.98
2022-10-31T05:22:21.448Z,11.55
2022-10-31T05:25:27.213Z,13.32
2022-10-31T05:28:29.823Z,13.27
2022-10-31T05:31:32.349Z,13.23
2022-10-31T05:34:35.067Z,12.18
2022-10-31T05:37:56.628Z,11.80
2022-10-31T05:41:01.974Z,12.18
2022-10-31T05:44:06.927Z,11.35
2022-10-31T05:47:20.238Z,10.40
2022-10-31T05:50:45.753Z,9.73
2022-10-31T05:53:48.719Z,10.40
2022-10-31T05:56:52.198Z,11.30
2022-10-31T05:59:55.255Z,10.90
2022-10-31T06:03:00.958Z,12.57
2022-10-31T06:06:16.464Z,11.82
2022-10-31T06:09:18.845Z,10.05
2022-10-31T06:12:21.652Z,12.57
2022-10-31T06:16:02.489Z,13.82
2022-10-31T06:19:10.845Z,12.10
2022-10-31T06:22:13.380Z,12.75
2022-10-31T06:25:15.915Z,11.95
2022-10-31T06:28:24.379Z,11.52
2022-10-31T06:31:31.297Z,11.68
2022-10-31T06:34:33.704Z,10.73
2022-10-31T06:37:36.174Z,11.75
2022-10-31T06:40:50.560Z,10.98
2022-10-31T06:43:56.425Z,11.77
2022-10-31T06:47:41.391Z,10.20
2022-10-31T06:50:59.388Z,9.07
2022-10-31T06:54:02.472Z,7.30
2022-10-31T06:57:04.969Z,7.97
2022-10-31T07:00:09.902Z,7.90
2022-10-31T07:03:21.276Z,7.95
2022-10-31T07:06:24.151Z,7.20
2022-10-31T07:09:26.498Z,7.10
2022-10-31T07:12:29.526Z,8.25
2022-10-31T07:15:36.450Z,7.68
2022-10-31T07:18:38.886Z,8.40
2022-10-31T07:21:41.646Z,7.50
2022-10-31T07:24:45.424Z,7.13
2022-10-31T07:27:54.236Z,6.90
2022-10-31T07:30:58.383Z,7.05
2022-10-31T07:34:02.253Z,8.13
2022-10-31T07:37:04.605Z,7.37
2022-10-31T07:40:09.340Z,8.52
2022-10-31T07:43:14.646Z,7.65
2022-10-31T07:46:49.265Z,6.97
2022-10-31T07:50:12.424Z,7.78
2022-10-31T07:53:33.211Z,7.10
2022-10-31T07:56:48.044Z,6.25
2022-10-31T07:59:50.608Z,6.93
2022-10-31T08:02:59.448Z,6.72
2022-10-31T08:06:22.160Z,6.63
2022-10-31T08:09:46.423Z,7.20
2022-10-31T08:13:00.858Z,7.55
2022-10-31T08:16:05.389Z,7.18
2022-10-31T08:19:11.459Z,8.45
2022-10-31T08:22:15.027Z,6.82
2022-10-31T08:25:19.133Z,7.40
2022-10-31T08:28:22.765Z,5.80
2022-10-31T08:31:33.174Z,5.75
2022-10-31T08:34:55.098Z,5.43
2022-10-31T08:38:15.886Z,5.57
2022-10-31T08:41:19.019Z,6.00
2022-10-31T08:44:21.476Z,5.85
2022-10-31T08:47:24.047Z,6.38
2022-10-31T08:50:27.727Z,6.28
2022-10-31T08:53:30.237Z,5.55
2022-10-31T08:57:04.799Z,5.87
2022-10-31T09:00:16.210Z,5.97
2022-10-31T09:03:39.208Z,6.03
2022-10-31T09:06:50.415Z,6.28
2022-10-31T09:10:04.094Z,6.03
2022-10-31T09:13:20.558Z,6.37
2022-10-31T09:16:52.342Z,5.90
2022-10-31T09:19:58.722Z,6.18
2022-10-31T09:23:10.193Z,8.23
2022-10-31T09:26:14.229Z,9.10
2022-10-31T09:29:19.734Z,6.83
2022-10-31T09:32:28.579Z,6.78
2022-10-31T09:35:32.035Z,6.57
2022-10-31T09:38:34.476Z,8.65
2022-10-31T09:42:04.377Z,8.38
2022-10-31T09:45:25.968Z,5.40
2022-10-31T09:48:51.018Z,6.43
2022-10-31T09:52:13.056Z,5.53
2022-10-31T09:55:17.562Z,6.63
2022-10-31T09:58:22.434Z,5.78
2022-10-31T10:01:43.322Z,5.90
2022-10-31T10:04:49.522Z,5.72
2022-10-31T10:08:02.120Z,7.32
2022-10-31T10:11:51.924Z,7.60
2022-10-31T10:15:18.252Z,6.53
2022-10-31T10:18:45.611Z,6.50
2022-10-31T10:22:18.786Z,6.03
2022-10-31T10:25:24.367Z,7.38
2022-10-31T10:28:39.390Z,6.40
2022-10-31T10:31:43.672Z,5.82
2022-10-31T10:34:51.219Z,7.17
2022-10-31T10:38:00.934Z,6.05
2022-10-31T10:41:07.124Z,6.65
2022-10-31T10:44:12.507Z,5.88
2022-10-31T10:47:34.516Z,6.88
2022-10-31T10:50:42.979Z,6.40
2022-10-31T10:54:29.132Z,6.65
2022-10-31T10:57:47.956Z,5.97
2022-10-31T11:00:51.606Z,6.38
2022-10-31T11:03:54.045Z,6.20
2022-10-31T11:07:15.441Z,4.97
2022-10-31T11:10:19.050Z,5.60
2022-10-31T11:13:24.478Z,5.80
2022-10-31T11:16:26.839Z,6.88
2022-10-31T11:19:32.116Z,5.30
2022-10-31T11:22:35.058Z,5.37
2022-10-31T11:25:38.443Z,5.82
2022-10-31T11:28:41.646Z,6.38
2022-10-31T11:31:45.824Z,6.47
2022-10-31T11:34:51.326Z,6.13
2022-10-31T11:37:56.087Z,6.60
2022-10-31T11:41:28.886Z,6.95
2022-10-31T11:44:31.687Z,6.68
2022-10-31T11:47:34.789Z,6.18
2022-10-31T11:50:42.138Z,6.00
2022-10-31T11:53:54.353Z,6.53
2022-10-31T11:56:58.103Z,5.78
2022-10-31T12:00:05.043Z,6.03
2022-10-31T12:03:23.852Z,7.07
2022-10-31T12:06:33.091Z,6.32
2022-10-31T12:09:37.711Z,5.83
2022-10-31T12:12:58.368Z,5.60
2022-10-31T12:16:07.379Z,9.52
2022-10-31T12:19:19.902Z,7.53
2022-10-31T12:22:28.684Z,6.15
2022-10-31T12:25:43.197Z,6.70
2022-10-31T12:29:09.938Z,5.40
2022-10-31T12:32:31.578Z,5.70
2022-10-31T12:36:14.409Z,5.78
2022-10-31T12:39:39.452Z,9.05
2022-10-31T12:42:56.136Z,6.73
2022-10-31T12:45:59.964Z,6.30
2022-10-31T12:49:14.450Z,6.93
2022-10-31T12:52:24.854Z,8.93
2022-10-31T12:55:38.686Z,7.97
2022-10-31T12:59:14.272Z,10.43
2022-10-31T13:02:21.781Z,8.23
2022-10-31T13:05:45.803Z,6.63
2022-10-31T13:08:54.777Z,6.85
2022-10-31T13:12:06.696Z,7.00
2022-10-31T13:15:26.726Z,7.20
2022-10-31T13:18:34.886Z,6.90
2022-10-31T13:21:53.458Z,7.18
2022-10-31T13:24:59.968Z,6.05
2022-10-31T13:28:06.446Z,6.95
2022-10-31T13:31:09.577Z,6.17
2022-10-31T13:34:23.778Z,6.30
2022-10-31T13:37:37.869Z,6.60
2022-10-31T13:40:49.266Z,6.70
2022-10-31T13:44:01.052Z,7.45
2022-10-31T13:47:03.384Z,9.00
2022-10-31T13:50:23.678Z,7.80
2022-10-31T13:53:43.110Z,7.72
2022-10-31T13:56:49.771Z,6.97
2022-10-31T14:00:09.341Z,7.22
2022-10-31T14:03:35.907Z,7.43
2022-10-31T14:07:08.196Z,7.18
2022-10-31T14:10:23.556Z,8.65
2022-10-31T14:13:43.836Z,9.40
2022-10-31T14:16:49.033Z,12.18
2022-10-31T14:20:03.940Z,11.27
2022-10-31T14:23:31.424Z,16.15
2022-10-31T14:26:36.164Z,12.10
2022-10-31T14:29:38.578Z,8.68
2022-10-31T14:32:41.925Z,7.57
2022-10-31T14:36:03.365Z,7.03
2022-10-31T14:39:17.380Z,6.68
2022-10-31T14:42:25.654Z,6.30
2022-10-31T14:45:46.556Z,5.97
2022-10-31T14:49:00.381Z,8.52
2022-10-31T14:52:03.972Z,11.00
2022-10-31T14:55:08.931Z,7.18
2022-10-31T14:58:18.861Z,6.13
2022-10-31T15:01:31.033Z,5.60
2022-10-31T15:04:37.086Z,5.63
2022-10-31T15:07:57.009Z,5.90
2022-10-31T15:10:59.480Z,6.28
2022-10-31T15:14:03.141Z,4.82
2022-10-31T15:17:07.326Z,6.10
2022-10-31T15:20:22.075Z,9.52
2022-10-31T15:23:27.285Z,6.40
2022-10-31T15:26:36.417Z,7.50
2022-10-31T15:29:48.959Z,5.70
2022-10-31T15:32:58.168Z,4.85
2022-10-31T15:36:03.234Z,13.48
2022-10-31T15:39:05.786Z,7.17
2022-10-31T15:42:18.704Z,6.18
2022-10-31T15:45:27.971Z,5.40
2022-10-31T15:48:32.901Z,5.45
2022-10-31T15:51:35.814Z,5.35
2022-10-31T15:54:49.365Z,4.97
2022-10-31T15:58:12.709Z,4.78
2022-10-31T16:01:25.066Z,4.78
2022-10-31T16:04:27.658Z,6.65
2022-10-31T16:07:30.655Z,5.78
2022-10-31T16:10:36.427Z,5.97
2022-10-31T16:13:42.942Z,5.78
2022-10-31T16:16:50.396Z,6.00
2022-10-31T16:19:57.976Z,6.53
2022-10-31T16:23:02.111Z,6.30
2022-10-31T16:26:09.161Z,6.00
2022-10-31T16:29:33.539Z,6.88
2022-10-31T16:32:54.440Z,5.90
2022-10-31T16:36:04.745Z,5.93
2022-10-31T16:39:18.736Z,6.43
2022-10-31T16:42:22.264Z,5.90
2022-10-31T16:45:28.189Z,5.53
2022-10-31T16:48:30.580Z,10.10
2022-10-31T16:51:33.311Z,6.38
2022-10-31T16:54:35.795Z,5.13
2022-10-31T16:57:38.247Z,4.97
2022-10-31T17:00:40.627Z,6.13
2022-10-31T17:03:43.598Z,6.45
2022-10-31T17:06:46.208Z,6.97
2022-10-31T17:09:48.791Z,5.65
2022-10-31T17:12:51.504Z,7.23
2022-10-31T17:15:56.872Z,8.63
2022-10-31T17:18:59.202Z,10.43
2022-10-31T17:22:02.458Z,11.35
2022-10-31T17:25:05.168Z,11.75
2022-10-31T17:28:09.420Z,11.27
2022-10-31T17:31:29.910Z,8.10
2022-10-31T17:34:32.504Z,7.93
2022-10-31T17:37:35.120Z,7.97
2022-10-31T17:40:41.707Z,8.00
2022-10-31T17:43:44.200Z,7.80
2022-10-31T17:46:46.541Z,8.02
2022-10-31T17:49:49.010Z,8.35
2022-10-31T17:52:51.927Z,8.38
2022-10-31T17:55:54.638Z,9.85
2022-10-31T17:58:58.146Z,9.77
2022-10-31T18:02:01.556Z,10.02
2022-10-31T18:05:05.600Z,10.45
2022-10-31T18:08:07.993Z,9.38
2022-10-31T18:11:16.503Z,7.30
2022-10-31T18:14:19.999Z,7.77
2022-10-31T18:17:22.915Z,8.65
2022-10-31T18:20:25.962Z,9.07
2022-10-31T18:23:29.015Z,8.68
2022-10-31T18:26:31.560Z,7.72
2022-10-31T18:29:34.242Z,9.13
2022-10-31T18:32:40.553Z,9.75
2022-10-31T18:35:43.468Z,9.18
2022-10-31T18:38:46.286Z,9.70
2022-10-31T18:41:48.926Z,10.73
2022-10-31T18:44:51.655Z,10.83
2022-10-31T18:47:54.445Z,10.77
2022-10-31T18:50:58.626Z,13.27
2022-10-31T18:54:01.904Z,13.63
2022-10-31T18:57:05.634Z,11.98
2022-10-31T19:00:09.154Z,10.60
2022-10-31T19:03:12.118Z,11.27
2022-10-31T19:06:14.809Z,11.82
2022-10-31T19:09:17.425Z,11.80
2022-10-31T19:12:19.874Z,10.95
2022-10-31T19:15:23.465Z,14.10
2022-10-31T19:18:27.168Z,13.88
2022-10-31T19:21:32.196Z,12.45
2022-10-31T19:24:34.875Z,11.27
2022-10-31T19:27:37.382Z,10.27
2022-10-31T19:30:39.761Z,10.63
2022-10-31T19:33:42.155Z,11.40
2022-10-31T19:36:44.838Z,11.32
2022-10-31T19:39:47.311Z,11.40
2022-10-31T19:42:51.127Z,11.13
2022-10-31T19:45:55.992Z,13.37
2022-10-31T19:48:59.107Z,11.80
2022-10-31T19:52:01.649Z,11.27
2022-10-31T19:55:04.352Z,11.18
2022-10-31T19:58:08.062Z,11.17
2022-10-31T20:01:13.549Z,14.33
2022-10-31T20:04:16.818Z,14.88
2022-10-31T20:07:19.197Z,12.95
2022-10-31T20:10:22.102Z,13.32
2022-10-31T20:13:25.243Z,13.10
2022-10-31T20:16:28.304Z,13.77
2022-10-31T20:19:31.835Z,13.20
2022-10-31T20:22:36.019Z,12.30
2022-10-31T20:25:47.884Z,11.82
2022-10-31T20:28:51.539Z,11.88
2022-10-31T20:31:54.130Z,11.33
2022-10-31T20:34:56.791Z,12.23
2022-10-31T20:37:59.766Z,11.88
2022-10-31T20:41:04.411Z,12.25
2022-10-31T20:44:07.178Z,11.40
2022-10-31T20:47:09.580Z,12.10
2022-10-31T20:50:11.951Z,12.35
2022-10-31T20:53:14.531Z,10.65
2022-10-31T20:56:19.645Z,11.13
2022-10-31T20:59:22.556Z,11.70
2022-10-31T21:02:25.314Z,12.50
2022-10-31T21:05:29.333Z,11.02
2022-10-31T21:08:32.993Z,11.07
2022-10-31T21:11:35.562Z,11.55
2022-10-31T21:14:37.917Z,9.88
2022-10-31T21:17:41.494Z,10.63
2022-10-31T21:20:44.565Z,11.32
2022-10-31T21:23:47.585Z,11.75
2022-10-31T21:26:51.659Z,10.25
2022-10-31T21:29:54.053Z,10.88
2022-10-31T21:32:56.500Z,10.90
2022-10-31T21:35:59.983Z,11.50
2022-10-31T21:39:05.160Z,11.45
2022-10-31T21:42:07.578Z,10.80
2022-10-31T21:45:11.038Z,12.15
2022-10-31T21:48:14.500Z,12.67
2022-10-31T21:51:22.194Z,10.13
2022-10-31T21:54:27.694Z,11.15
2022-10-31T21:57:31.068Z,10.90
2022-10-31T22:00:36.676Z,12.10
2022-10-31T22:03:40.534Z,12.17
2022-10-31T22:06:43.265Z,12.45
2022-10-31T22:09:48.546Z,13.20
2022-10-31T22:12:50.895Z,12.02
2022-10-31T22:15:53.222Z,12.65
2022-10-31T22:18:58.632Z,12.13
2022-10-31T22:22:01.878Z,11.90
2022-10-31T22:25:04.423Z,12.95
2022-10-31T22:28:07.995Z,11.82
2022-10-31T22:34:20.773Z,10.83
2022-10-31T22:37:24.227Z,11.57
2022-10-31T22:40:26.607Z,10.43
2022-10-31T22:43:28.963Z,11.25
2022-10-31T22:46:38.036Z,11.30
2022-10-31T22:49:40.996Z,11.30
2022-10-31T22:52:43.547Z,11.80
2022-10-31T22:55:45.972Z,11.55
2022-10-31T22:58:49.341Z,12.10
2022-10-31T23:01:52.080Z,12.23
2022-10-31T23:04:54.469Z,13.10
2022-10-31T23:07:58.038Z,11.40
2022-10-31T23:11:01.111Z,11.68
2022-10-31T23:14:15.853Z,12.48
2022-10-31T23:17:18.207Z,11.10
2022-10-31T23:20:20.539Z,11.27
2022-10-31T23:23:22.926Z,11.02
2022-10-31T23:26:44.835Z,10.00
2022-10-31T23:29:48.924Z,9.88
2022-10-31T23:32:51.497Z,10.35
2022-10-31T23:35:54.364Z,10.07
2022-10-31T23:38:56.838Z,10.90
2022-10-31T23:41:59.427Z,10.95
2022-10-31T23:45:01.805Z,10.45
2022-10-31T23:48:04.656Z,10.70
2022-10-31T23:51:07.183Z,10.87
2022-10-31T23:54:09.791Z,11.48
2022-10-31T23:57:13.766Z,10.40
